Warman, Canada
Current Conditions -  °F | °C
As of 5:00 AM on Saturday 25 Oct 2014 (Local Time) from CYXE Reporting Station
Clear Clear  
Wind Chill: 17°   Ceiling: Unl
Heat Index: 27°   Visibility: 15mi
Dew Point: 23°   Wind: 10mph
Humidity: 86%   Direction: 240°WSW
Pressure: 30.03"   Gusts: NA
Location:  52.32°N, 106.57°W
Report Text: CYXE 251100Z 24009KT 15SM SKC M03/M05 A3003 RMK SLP191
Loading
Personal Weather Stations






























Interactive Weather Map
Tropical Storm Tracking
New forecast layout! Learn more

10-Day Weather Forecast

Advertisements
Track Severe Weather on mobile